sensor_id;sensor_type;location;lat;lon;timestamp;P1;durP1;ratioP1;P2;durP2;ratioP2
54959;SDS011;40860;51.710;8.736;2022-10-15T00:01:55;5.43;;;4.93;;
54959;SDS011;40860;51.710;8.736;2022-10-15T00:06:02;6.10;;;5.50;;
54959;SDS011;40860;51.710;8.736;2022-10-15T00:10:05;5.97;;;5.40;;
54959;SDS011;40860;51.710;8.736;2022-10-15T00:14:08;5.55;;;5.05;;
54959;SDS011;40860;51.710;8.736;2022-10-15T00:18:12;5.70;;;5.20;;
54959;SDS011;40860;51.710;8.736;2022-10-15T00:22:15;5.72;;;5.22;;
54959;SDS011;40860;51.710;8.736;2022-10-15T00:26:19;5.93;;;5.43;;
54959;SDS011;40860;51.710;8.736;2022-10-15T00:30:23;6.05;;;5.55;;
54959;SDS011;40860;51.710;8.736;2022-10-15T00:34:27;7.07;;;5.07;;
54959;SDS011;40860;51.710;8.736;2022-10-15T00:38:32;7.15;;;5.30;;
54959;SDS011;40860;51.710;8.736;2022-10-15T00:42:35;6.53;;;5.07;;
54959;SDS011;40860;51.710;8.736;2022-10-15T00:46:38;6.18;;;5.00;;
54959;SDS011;40860;51.710;8.736;2022-10-15T00:50:44;5.95;;;5.15;;
54959;SDS011;40860;51.710;8.736;2022-10-15T00:54:48;5.60;;;4.90;;
54959;SDS011;40860;51.710;8.736;2022-10-15T00:58:54;5.80;;;5.30;;
54959;SDS011;40860;51.710;8.736;2022-10-15T01:02:58;6.85;;;5.93;;
54959;SDS011;40860;51.710;8.736;2022-10-15T01:07:03;6.75;;;6.05;;
54959;SDS011;40860;51.710;8.736;2022-10-15T01:11:10;6.80;;;6.10;;
54959;SDS011;40860;51.710;8.736;2022-10-15T01:15:24;5.28;;;4.88;;
54959;SDS011;40860;51.710;8.736;2022-10-15T01:19:34;5.97;;;5.35;;
54959;SDS011;40860;51.710;8.736;2022-10-15T01:28:39;8.48;;;6.35;;
54959;SDS011;40860;51.710;8.736;2022-10-15T01:32:53;6.60;;;6.00;;
54959;SDS011;40860;51.710;8.736;2022-10-15T01:37:22;6.72;;;6.03;;
54959;SDS011;40860;51.710;8.736;2022-10-15T01:41:30;7.43;;;6.72;;
54959;SDS011;40860;51.710;8.736;2022-10-15T01:45:42;7.47;;;6.68;;
54959;SDS011;40860;51.710;8.736;2022-10-15T01:50:10;9.27;;;6.38;;
54959;SDS011;40860;51.710;8.736;2022-10-15T01:54:17;9.23;;;6.22;;
54959;SDS011;40860;51.710;8.736;2022-10-15T01:58:22;7.72;;;6.20;;
54959;SDS011;40860;51.710;8.736;2022-10-15T02:02:26;8.45;;;7.55;;
54959;SDS011;40860;51.710;8.736;2022-10-15T02:06:37;7.25;;;6.50;;
54959;SDS011;40860;51.710;8.736;2022-10-15T02:10:45;7.20;;;6.13;;
54959;SDS011;40860;51.710;8.736;2022-10-15T02:14:53;7.53;;;6.82;;
54959;SDS011;40860;51.710;8.736;2022-10-15T02:19:03;6.47;;;5.88;;
54959;SDS011;40860;51.710;8.736;2022-10-15T02:23:14;8.77;;;7.30;;
54959;SDS011;40860;51.710;8.736;2022-10-15T02:27:21;7.28;;;6.25;;
54959;SDS011;40860;51.710;8.736;2022-10-15T02:31:26;7.60;;;6.90;;
54959;SDS011;40860;51.710;8.736;2022-10-15T02:35:32;8.45;;;7.18;;
54959;SDS011;40860;51.710;8.736;2022-10-15T02:39:41;7.57;;;6.68;;
54959;SDS011;40860;51.710;8.736;2022-10-15T02:43:45;7.97;;;7.18;;
54959;SDS011;40860;51.710;8.736;2022-10-15T02:47:49;9.07;;;6.18;;
54959;SDS011;40860;51.710;8.736;2022-10-15T02:51:52;8.75;;;7.15;;
54959;SDS011;40860;51.710;8.736;2022-10-15T02:55:57;9.55;;;6.93;;
54959;SDS011;40860;51.710;8.736;2022-10-15T03:00:00;11.13;;;9.20;;
54959;SDS011;40860;51.710;8.736;2022-10-15T03:04:03;8.90;;;8.00;;
54959;SDS011;40860;51.710;8.736;2022-10-15T03:08:07;9.65;;;8.38;;
54959;SDS011;40860;51.710;8.736;2022-10-15T03:12:12;10.63;;;8.02;;
54959;SDS011;40860;51.710;8.736;2022-10-15T03:16:15;10.10;;;8.70;;
54959;SDS011;40860;51.710;8.736;2022-10-15T03:20:20;11.15;;;9.13;;
54959;SDS011;40860;51.710;8.736;2022-10-15T03:24:24;10.00;;;8.98;;
54959;SDS011;40860;51.710;8.736;2022-10-15T03:28:28;13.40;;;11.35;;
54959;SDS011;40860;51.710;8.736;2022-10-15T03:32:32;16.50;;;11.00;;
54959;SDS011;40860;51.710;8.736;2022-10-15T03:36:38;12.85;;;11.35;;
54959;SDS011;40860;51.710;8.736;2022-10-15T03:40:44;14.18;;;11.68;;
54959;SDS011;40860;51.710;8.736;2022-10-15T03:44:57;14.07;;;11.95;;
54959;SDS011;40860;51.710;8.736;2022-10-15T03:49:00;15.63;;;12.48;;
54959;SDS011;40860;51.710;8.736;2022-10-15T03:53:04;18.58;;;13.55;;
54959;SDS011;40860;51.710;8.736;2022-10-15T03:57:07;14.55;;;13.05;;
54959;SDS011;40860;51.710;8.736;2022-10-15T04:01:19;16.98;;;13.18;;
54959;SDS011;40860;51.710;8.736;2022-10-15T04:05:22;17.60;;;14.98;;
54959;SDS011;40860;51.710;8.736;2022-10-15T04:09:31;19.45;;;15.05;;
54959;SDS011;40860;51.710;8.736;2022-10-15T04:13:57;18.35;;;14.98;;
54959;SDS011;40860;51.710;8.736;2022-10-15T04:18:02;17.85;;;15.27;;
54959;SDS011;40860;51.710;8.736;2022-10-15T04:22:05;20.58;;;15.05;;
54959;SDS011;40860;51.710;8.736;2022-10-15T04:26:15;20.13;;;14.65;;
54959;SDS011;40860;51.710;8.736;2022-10-15T04:30:19;17.52;;;13.48;;
54959;SDS011;40860;51.710;8.736;2022-10-15T04:34:29;17.52;;;13.18;;
54959;SDS011;40860;51.710;8.736;2022-10-15T04:38:32;18.70;;;14.40;;
54959;SDS011;40860;51.710;8.736;2022-10-15T04:42:37;16.63;;;13.50;;
54959;SDS011;40860;51.710;8.736;2022-10-15T04:46:44;18.65;;;14.00;;
54959;SDS011;40860;51.710;8.736;2022-10-15T04:51:18;20.77;;;16.75;;
54959;SDS011;40860;51.710;8.736;2022-10-15T04:55:39;17.23;;;13.48;;
54959;SDS011;40860;51.710;8.736;2022-10-15T04:59:42;15.93;;;12.68;;
54959;SDS011;40860;51.710;8.736;2022-10-15T05:04:09;17.70;;;13.80;;
54959;SDS011;40860;51.710;8.736;2022-10-15T05:08:15;16.85;;;13.63;;
54959;SDS011;40860;51.710;8.736;2022-10-15T05:12:34;15.90;;;12.77;;
54959;SDS011;40860;51.710;8.736;2022-10-15T05:16:39;17.00;;;13.52;;
54959;SDS011;40860;51.710;8.736;2022-10-15T05:20:43;14.73;;;13.00;;
54959;SDS011;40860;51.710;8.736;2022-10-15T05:24:51;19.98;;;14.75;;
54959;SDS011;40860;51.710;8.736;2022-10-15T05:28:59;19.67;;;15.15;;
54959;SDS011;40860;51.710;8.736;2022-10-15T05:33:04;21.05;;;16.00;;
54959;SDS011;40860;51.710;8.736;2022-10-15T05:37:08;23.88;;;16.63;;
54959;SDS011;40860;51.710;8.736;2022-10-15T05:41:15;22.52;;;17.63;;
54959;SDS011;40860;51.710;8.736;2022-10-15T05:45:18;28.00;;;19.27;;
54959;SDS011;40860;51.710;8.736;2022-10-15T05:49:21;26.77;;;19.05;;
54959;SDS011;40860;51.710;8.736;2022-10-15T05:53:32;26.10;;;18.63;;
54959;SDS011;40860;51.710;8.736;2022-10-15T05:57:41;25.48;;;17.92;;
54959;SDS011;40860;51.710;8.736;2022-10-15T06:01:44;28.60;;;20.42;;
54959;SDS011;40860;51.710;8.736;2022-10-15T06:05:47;28.63;;;19.55;;
54959;SDS011;40860;51.710;8.736;2022-10-15T06:09:50;31.33;;;21.58;;
54959;SDS011;40860;51.710;8.736;2022-10-15T06:13:58;29.77;;;21.73;;
54959;SDS011;40860;51.710;8.736;2022-10-15T06:18:01;33.92;;;23.17;;
54959;SDS011;40860;51.710;8.736;2022-10-15T06:22:04;37.45;;;23.15;;
54959;SDS011;40860;51.710;8.736;2022-10-15T06:26:08;32.53;;;21.73;;
54959;SDS011;40860;51.710;8.736;2022-10-15T06:30:12;32.25;;;21.63;;
54959;SDS011;40860;51.710;8.736;2022-10-15T06:34:15;29.80;;;21.45;;
54959;SDS011;40860;51.710;8.736;2022-10-15T06:38:19;29.98;;;21.15;;
54959;SDS011;40860;51.710;8.736;2022-10-15T06:42:22;32.13;;;22.45;;
54959;SDS011;40860;51.710;8.736;2022-10-15T06:46:29;30.90;;;22.83;;
54959;SDS011;40860;51.710;8.736;2022-10-15T06:50:33;34.70;;;23.48;;
54959;SDS011;40860;51.710;8.736;2022-10-15T06:54:37;35.50;;;24.67;;
54959;SDS011;40860;51.710;8.736;2022-10-15T06:58:41;34.70;;;24.27;;
54959;SDS011;40860;51.710;8.736;2022-10-15T07:02:46;35.63;;;24.90;;
54959;SDS011;40860;51.710;8.736;2022-10-15T07:06:49;38.60;;;26.10;;
54959;SDS011;40860;51.710;8.736;2022-10-15T07:10:52;39.20;;;26.65;;
54959;SDS011;40860;51.710;8.736;2022-10-15T07:14:57;43.85;;;28.45;;
54959;SDS011;40860;51.710;8.736;2022-10-15T07:19:01;43.30;;;28.65;;
54959;SDS011;40860;51.710;8.736;2022-10-15T07:23:04;38.53;;;27.27;;
54959;SDS011;40860;51.710;8.736;2022-10-15T07:27:07;36.97;;;26.52;;
54959;SDS011;40860;51.710;8.736;2022-10-15T07:31:19;37.38;;;25.42;;
54959;SDS011;40860;51.710;8.736;2022-10-15T07:35:25;31.88;;;24.02;;
54959;SDS011;40860;51.710;8.736;2022-10-15T07:39:28;32.92;;;24.50;;
54959;SDS011;40860;51.710;8.736;2022-10-15T07:43:31;26.63;;;20.63;;
54959;SDS011;40860;51.710;8.736;2022-10-15T07:47:34;26.88;;;20.00;;
54959;SDS011;40860;51.710;8.736;2022-10-15T07:51:40;26.17;;;18.25;;
54959;SDS011;40860;51.710;8.736;2022-10-15T07:55:42;22.60;;;17.13;;
54959;SDS011;40860;51.710;8.736;2022-10-15T07:59:45;18.40;;;15.38;;
54959;SDS011;40860;51.710;8.736;2022-10-15T08:03:48;18.52;;;15.57;;
54959;SDS011;40860;51.710;8.736;2022-10-15T08:07:53;18.08;;;14.13;;
54959;SDS011;40860;51.710;8.736;2022-10-15T08:11:56;16.95;;;14.52;;
54959;SDS011;40860;51.710;8.736;2022-10-15T08:15:58;18.98;;;14.40;;
54959;SDS011;40860;51.710;8.736;2022-10-15T08:20:01;16.67;;;13.90;;
54959;SDS011;40860;51.710;8.736;2022-10-15T08:24:07;20.48;;;13.93;;
54959;SDS011;40860;51.710;8.736;2022-10-15T08:28:10;15.02;;;12.98;;
54959;SDS011;40860;51.710;8.736;2022-10-15T08:32:13;15.07;;;13.48;;
54959;SDS011;40860;51.710;8.736;2022-10-15T08:36:16;16.00;;;13.07;;
54959;SDS011;40860;51.710;8.736;2022-10-15T08:40:20;15.25;;;12.63;;
54959;SDS011;40860;51.710;8.736;2022-10-15T08:44:24;14.43;;;11.95;;
54959;SDS011;40860;51.710;8.736;2022-10-15T08:48:31;15.95;;;11.80;;
54959;SDS011;40860;51.710;8.736;2022-10-15T08:52:38;15.88;;;12.60;;
54959;SDS011;40860;51.710;8.736;2022-10-15T08:56:45;14.88;;;12.27;;
54959;SDS011;40860;51.710;8.736;2022-10-15T09:00:53;13.68;;;12.15;;
54959;SDS011;40860;51.710;8.736;2022-10-15T09:05:00;15.30;;;12.65;;
54959;SDS011;40860;51.710;8.736;2022-10-15T09:09:14;13.82;;;12.13;;
54959;SDS011;40860;51.710;8.736;2022-10-15T09:13:22;13.38;;;11.98;;
54959;SDS011;40860;51.710;8.736;2022-10-15T09:17:28;14.13;;;10.95;;
54959;SDS011;40860;51.710;8.736;2022-10-15T09:21:34;13.30;;;11.00;;
54959;SDS011;40860;51.710;8.736;2022-10-15T09:25:37;12.70;;;11.40;;
54959;SDS011;40860;51.710;8.736;2022-10-15T09:29:49;14.00;;;10.88;;
54959;SDS011;40860;51.710;8.736;2022-10-15T09:34:06;13.75;;;11.68;;
54959;SDS011;40860;51.710;8.736;2022-10-15T09:38:22;14.02;;;9.95;;
54959;SDS011;40860;51.710;8.736;2022-10-15T09:42:30;10.38;;;9.30;;
54959;SDS011;40860;51.710;8.736;2022-10-15T09:46:42;10.95;;;9.52;;
54959;SDS011;40860;51.710;8.736;2022-10-15T09:50:48;10.15;;;8.77;;
54959;SDS011;40860;51.710;8.736;2022-10-15T09:55:02;9.10;;;8.13;;
54959;SDS011;40860;51.710;8.736;2022-10-15T09:59:14;9.68;;;8.35;;
54959;SDS011;40860;51.710;8.736;2022-10-15T10:03:19;9.77;;;8.32;;
54959;SDS011;40860;51.710;8.736;2022-10-15T10:07:29;8.75;;;7.85;;
54959;SDS011;40860;51.710;8.736;2022-10-15T10:11:44;9.00;;;7.68;;
54959;SDS011;40860;51.710;8.736;2022-10-15T10:15:50;8.35;;;7.45;;
54959;SDS011;40860;51.710;8.736;2022-10-15T10:20:09;7.25;;;6.07;;
54959;SDS011;40860;51.710;8.736;2022-10-15T10:24:17;5.93;;;5.43;;
54959;SDS011;40860;51.710;8.736;2022-10-15T10:28:24;4.80;;;4.40;;
54959;SDS011;40860;51.710;8.736;2022-10-15T10:32:31;4.05;;;3.75;;
54959;SDS011;40860;51.710;8.736;2022-10-15T10:36:37;3.70;;;3.40;;
54959;SDS011;40860;51.710;8.736;2022-10-15T10:40:48;3.28;;;2.97;;
54959;SDS011;40860;51.710;8.736;2022-10-15T10:44:52;3.17;;;2.97;;
54959;SDS011;40860;51.710;8.736;2022-10-15T10:48:55;2.97;;;2.78;;
54959;SDS011;40860;51.710;8.736;2022-10-15T10:53:10;2.50;;;2.30;;
54959;SDS011;40860;51.710;8.736;2022-10-15T10:57:23;4.03;;;2.72;;
54959;SDS011;40860;51.710;8.736;2022-10-15T11:01:32;2.10;;;1.92;;
54959;SDS011;40860;51.710;8.736;2022-10-15T11:05:37;2.35;;;2.15;;
54959;SDS011;40860;51.710;8.736;2022-10-15T11:09:47;3.90;;;2.15;;
54959;SDS011;40860;51.710;8.736;2022-10-15T11:13:58;3.13;;;2.17;;
54959;SDS011;40860;51.710;8.736;2022-10-15T11:18:17;1.70;;;1.60;;
54959;SDS011;40860;51.710;8.736;2022-10-15T11:22:39;1.63;;;1.52;;
54959;SDS011;40860;51.710;8.736;2022-10-15T11:26:55;2.13;;;1.60;;
54959;SDS011;40860;51.710;8.736;2022-10-15T11:31:15;1.67;;;1.58;;
54959;SDS011;40860;51.710;8.736;2022-10-15T11:35:30;3.03;;;1.73;;
54959;SDS011;40860;51.710;8.736;2022-10-15T11:39:57;1.52;;;1.42;;
54959;SDS011;40860;51.710;8.736;2022-10-15T11:44:27;2.10;;;1.30;;
54959;SDS011;40860;51.710;8.736;2022-10-15T11:48:43;1.00;;;1.00;;
54959;SDS011;40860;51.710;8.736;2022-10-15T11:57:29;1.35;;;1.20;;
54959;SDS011;40860;51.710;8.736;2022-10-15T12:01:37;3.30;;;1.10;;
54959;SDS011;40860;51.710;8.736;2022-10-15T12:05:45;1.00;;;1.00;;
54959;SDS011;40860;51.710;8.736;2022-10-15T12:09:52;2.42;;;1.38;;
54959;SDS011;40860;51.710;8.736;2022-10-15T12:13:59;1.48;;;1.38;;
54959;SDS011;40860;51.710;8.736;2022-10-15T12:18:16;0.60;;;0.60;;
54959;SDS011;40860;51.710;8.736;2022-10-15T12:22:32;0.50;;;0.50;;
54959;SDS011;40860;51.710;8.736;2022-10-15T12:26:38;2.63;;;0.85;;
54959;SDS011;40860;51.710;8.736;2022-10-15T12:30:41;0.40;;;0.40;;
54959;SDS011;40860;51.710;8.736;2022-10-15T12:34:46;0.32;;;0.32;;
54959;SDS011;40860;51.710;8.736;2022-10-15T12:38:57;1.27;;;0.43;;
54959;SDS011;40860;51.710;8.736;2022-10-15T12:43:13;1.10;;;0.40;;
54959;SDS011;40860;51.710;8.736;2022-10-15T12:51:49;0.55;;;0.40;;
54959;SDS011;40860;51.710;8.736;2022-10-15T12:56:12;0.45;;;0.30;;
54959;SDS011;40860;51.710;8.736;2022-10-15T13:00:27;1.35;;;0.50;;
54959;SDS011;40860;51.710;8.736;2022-10-15T13:04:36;0.50;;;0.50;;
54959;SDS011;40860;51.710;8.736;2022-10-15T13:08:43;0.30;;;0.30;;
54959;SDS011;40860;51.710;8.736;2022-10-15T13:12:50;2.15;;;0.73;;
54959;SDS011;40860;51.710;8.736;2022-10-15T13:16:55;1.42;;;0.50;;
54959;SDS011;40860;51.710;8.736;2022-10-15T13:21:00;0.68;;;0.30;;
54959;SDS011;40860;51.710;8.736;2022-10-15T13:25:13;0.60;;;0.20;;
54959;SDS011;40860;51.710;8.736;2022-10-15T13:29:18;0.55;;;0.30;;
54959;SDS011;40860;51.710;8.736;2022-10-15T13:33:22;0.50;;;0.25;;
54959;SDS011;40860;51.710;8.736;2022-10-15T13:37:29;0.22;;;0.20;;
54959;SDS011;40860;51.710;8.736;2022-10-15T13:41:35;2.65;;;0.40;;
54959;SDS011;40860;51.710;8.736;2022-10-15T13:45:44;0.95;;;0.30;;
54959;SDS011;40860;51.710;8.736;2022-10-15T13:49:48;0.40;;;0.40;;
54959;SDS011;40860;51.710;8.736;2022-10-15T13:53:50;2.08;;;0.40;;
54959;SDS011;40860;51.710;8.736;2022-10-15T13:57:57;1.23;;;0.30;;
54959;SDS011;40860;51.710;8.736;2022-10-15T14:02:02;2.67;;;0.47;;
54959;SDS011;40860;51.710;8.736;2022-10-15T14:06:10;0.43;;;0.30;;
54959;SDS011;40860;51.710;8.736;2022-10-15T14:10:17;0.40;;;0.40;;
54959;SDS011;40860;51.710;8.736;2022-10-15T14:14:30;0.70;;;0.30;;
54959;SDS011;40860;51.710;8.736;2022-10-15T14:18:35;0.80;;;0.40;;
54959;SDS011;40860;51.710;8.736;2022-10-15T14:22:40;0.40;;;0.40;;
54959;SDS011;40860;51.710;8.736;2022-10-15T14:26:43;0.77;;;0.35;;
54959;SDS011;40860;51.710;8.736;2022-10-15T14:30:47;0.40;;;0.40;;
54959;SDS011;40860;51.710;8.736;2022-10-15T14:34:50;0.30;;;0.30;;
54959;SDS011;40860;51.710;8.736;2022-10-15T14:38:54;0.60;;;0.60;;
54959;SDS011;40860;51.710;8.736;2022-10-15T14:43:28;1.75;;;0.30;;
54959;SDS011;40860;51.710;8.736;2022-10-15T14:47:36;1.85;;;0.38;;
54959;SDS011;40860;51.710;8.736;2022-10-15T14:51:39;0.20;;;0.20;;
54959;SDS011;40860;51.710;8.736;2022-10-15T14:55:42;0.80;;;0.30;;
54959;SDS011;40860;51.710;8.736;2022-10-15T14:59:51;0.32;;;0.32;;
54959;SDS011;40860;51.710;8.736;2022-10-15T15:03:57;0.40;;;0.40;;
54959;SDS011;40860;51.710;8.736;2022-10-15T15:08:04;0.82;;;0.30;;
54959;SDS011;40860;51.710;8.736;2022-10-15T15:12:13;1.73;;;0.30;;
54959;SDS011;40860;51.710;8.736;2022-10-15T15:16:19;0.30;;;0.20;;
54959;SDS011;40860;51.710;8.736;2022-10-15T15:20:23;0.20;;;0.17;;
54959;SDS011;40860;51.710;8.736;2022-10-15T15:24:26;1.38;;;0.55;;
54959;SDS011;40860;51.710;8.736;2022-10-15T15:28:29;0.40;;;0.30;;
54959;SDS011;40860;51.710;8.736;2022-10-15T15:32:32;0.43;;;0.43;;
54959;SDS011;40860;51.710;8.736;2022-10-15T15:36:37;0.30;;;0.30;;
54959;SDS011;40860;51.710;8.736;2022-10-15T15:40:39;1.30;;;0.47;;
54959;SDS011;40860;51.710;8.736;2022-10-15T15:44:42;1.40;;;0.40;;
54959;SDS011;40860;51.710;8.736;2022-10-15T15:48:46;1.15;;;0.30;;
54959;SDS011;40860;51.710;8.736;2022-10-15T15:52:50;0.73;;;0.35;;
54959;SDS011;40860;51.710;8.736;2022-10-15T15:56:53;0.40;;;0.40;;
54959;SDS011;40860;51.710;8.736;2022-10-15T16:00:56;0.57;;;0.35;;
54959;SDS011;40860;51.710;8.736;2022-10-15T16:04:58;0.80;;;0.30;;
54959;SDS011;40860;51.710;8.736;2022-10-15T16:09:04;1.35;;;0.35;;
54959;SDS011;40860;51.710;8.736;2022-10-15T16:13:07;0.50;;;0.38;;
54959;SDS011;40860;51.710;8.736;2022-10-15T16:17:09;1.02;;;0.60;;
54959;SDS011;40860;51.710;8.736;2022-10-15T16:21:13;0.55;;;0.30;;
54959;SDS011;40860;51.710;8.736;2022-10-15T16:25:24;0.80;;;0.50;;
54959;SDS011;40860;51.710;8.736;2022-10-15T16:29:30;0.40;;;0.40;;
54959;SDS011;40860;51.710;8.736;2022-10-15T16:33:33;0.85;;;0.30;;
54959;SDS011;40860;51.710;8.736;2022-10-15T16:37:36;1.40;;;0.40;;
54959;SDS011;40860;51.710;8.736;2022-10-15T16:41:40;1.50;;;0.52;;
54959;SDS011;40860;51.710;8.736;2022-10-15T16:45:42;0.63;;;0.40;;
54959;SDS011;40860;51.710;8.736;2022-10-15T16:49:49;1.88;;;0.98;;
54959;SDS011;40860;51.710;8.736;2022-10-15T16:53:52;0.98;;;0.50;;
54959;SDS011;40860;51.710;8.736;2022-10-15T16:57:57;1.33;;;1.10;;
54959;SDS011;40860;51.710;8.736;2022-10-15T17:02:00;1.00;;;1.00;;
54959;SDS011;40860;51.710;8.736;2022-10-15T17:06:03;4.57;;;3.53;;
54959;SDS011;40860;51.710;8.736;2022-10-15T17:10:08;3.67;;;3.20;;
54959;SDS011;40860;51.710;8.736;2022-10-15T17:14:16;4.72;;;4.22;;
54959;SDS011;40860;51.710;8.736;2022-10-15T17:18:19;2.38;;;2.17;;
54959;SDS011;40860;51.710;8.736;2022-10-15T17:22:22;3.72;;;2.08;;
54959;SDS011;40860;51.710;8.736;2022-10-15T17:26:27;2.67;;;1.85;;
54959;SDS011;40860;51.710;8.736;2022-10-15T17:30:35;4.63;;;4.03;;
54959;SDS011;40860;51.710;8.736;2022-10-15T17:34:38;3.70;;;3.30;;
54959;SDS011;40860;51.710;8.736;2022-10-15T17:38:41;1.50;;;1.40;;
54959;SDS011;40860;51.710;8.736;2022-10-15T17:42:45;2.33;;;2.13;;
54959;SDS011;40860;51.710;8.736;2022-10-15T17:46:49;1.80;;;0.93;;
54959;SDS011;40860;51.710;8.736;2022-10-15T17:50:57;2.08;;;0.82;;
54959;SDS011;40860;51.710;8.736;2022-10-15T17:55:00;1.05;;;1.05;;
54959;SDS011;40860;51.710;8.736;2022-10-15T17:59:04;2.05;;;1.20;;
54959;SDS011;40860;51.710;8.736;2022-10-15T18:03:09;3.08;;;1.05;;
54959;SDS011;40860;51.710;8.736;2022-10-15T18:07:12;1.95;;;1.00;;
54959;SDS011;40860;51.710;8.736;2022-10-15T18:11:18;2.00;;;1.10;;
54959;SDS011;40860;51.710;8.736;2022-10-15T18:15:22;1.83;;;1.02;;
54959;SDS011;40860;51.710;8.736;2022-10-15T18:19:27;2.05;;;1.20;;
54959;SDS011;40860;51.710;8.736;2022-10-15T18:23:30;1.08;;;0.98;;
54959;SDS011;40860;51.710;8.736;2022-10-15T18:27:38;1.60;;;1.10;;
54959;SDS011;40860;51.710;8.736;2022-10-15T18:31:41;1.30;;;1.20;;
54959;SDS011;40860;51.710;8.736;2022-10-15T18:35:45;1.30;;;1.20;;
54959;SDS011;40860;51.710;8.736;2022-10-15T18:39:48;1.52;;;1.20;;
54959;SDS011;40860;51.710;8.736;2022-10-15T18:43:51;3.08;;;1.52;;
54959;SDS011;40860;51.710;8.736;2022-10-15T18:47:58;2.88;;;1.45;;
54959;SDS011;40860;51.710;8.736;2022-10-15T18:52:02;1.70;;;1.60;;
54959;SDS011;40860;51.710;8.736;2022-10-15T18:56:25;3.00;;;1.70;;
54959;SDS011;40860;51.710;8.736;2022-10-15T19:00:28;3.05;;;1.95;;
54959;SDS011;40860;51.710;8.736;2022-10-15T19:04:33;1.95;;;1.70;;
54959;SDS011;40860;51.710;8.736;2022-10-15T19:08:37;2.45;;;2.25;;
54959;SDS011;40860;51.710;8.736;2022-10-15T19:12:40;2.45;;;2.25;;
54959;SDS011;40860;51.710;8.736;2022-10-15T19:16:44;2.50;;;2.35;;
54959;SDS011;40860;51.710;8.736;2022-10-15T19:20:54;3.13;;;2.83;;
54959;SDS011;40860;51.710;8.736;2022-10-15T19:25:21;5.63;;;3.38;;
54959;SDS011;40860;51.710;8.736;2022-10-15T19:29:24;4.45;;;3.30;;
54959;SDS011;40860;51.710;8.736;2022-10-15T19:33:33;3.55;;;3.30;;
54959;SDS011;40860;51.710;8.736;2022-10-15T19:37:36;4.40;;;4.00;;
54959;SDS011;40860;51.710;8.736;2022-10-15T19:41:42;7.80;;;5.95;;
54959;SDS011;40860;51.710;8.736;2022-10-15T19:45:47;4.68;;;4.25;;
54959;SDS011;40860;51.710;8.736;2022-10-15T19:49:50;4.68;;;4.28;;
54959;SDS011;40860;51.710;8.736;2022-10-15T19:53:55;4.82;;;4.43;;
54959;SDS011;40860;51.710;8.736;2022-10-15T19:58:04;4.28;;;3.95;;
54959;SDS011;40860;51.710;8.736;2022-10-15T20:02:08;4.20;;;3.90;;
54959;SDS011;40860;51.710;8.736;2022-10-15T20:06:11;5.13;;;4.00;;
54959;SDS011;40860;51.710;8.736;2022-10-15T20:10:14;4.53;;;3.65;;
54959;SDS011;40860;51.710;8.736;2022-10-15T20:14:19;4.32;;;3.10;;
54959;SDS011;40860;51.710;8.736;2022-10-15T20:18:21;3.58;;;3.28;;
54959;SDS011;40860;51.710;8.736;2022-10-15T20:22:24;5.32;;;2.90;;
54959;SDS011;40860;51.710;8.736;2022-10-15T20:26:28;4.68;;;3.50;;
54959;SDS011;40860;51.710;8.736;2022-10-15T20:30:32;3.83;;;3.45;;
54959;SDS011;40860;51.710;8.736;2022-10-15T20:34:37;4.05;;;3.15;;
54959;SDS011;40860;51.710;8.736;2022-10-15T20:38:40;4.20;;;3.58;;
54959;SDS011;40860;51.710;8.736;2022-10-15T20:42:44;4.57;;;3.55;;
54959;SDS011;40860;51.710;8.736;2022-10-15T20:46:49;3.28;;;2.97;;
54959;SDS011;40860;51.710;8.736;2022-10-15T20:50:57;7.47;;;5.10;;
54959;SDS011;40860;51.710;8.736;2022-10-15T20:55:02;3.85;;;3.10;;
54959;SDS011;40860;51.710;8.736;2022-10-15T20:59:06;3.63;;;2.58;;
54959;SDS011;40860;51.710;8.736;2022-10-15T21:03:11;2.50;;;2.30;;
54959;SDS011;40860;51.710;8.736;2022-10-15T21:07:14;3.60;;;3.05;;
54959;SDS011;40860;51.710;8.736;2022-10-15T21:11:20;3.40;;;3.10;;
54959;SDS011;40860;51.710;8.736;2022-10-15T21:15:25;5.05;;;3.03;;
54959;SDS011;40860;51.710;8.736;2022-10-15T21:19:32;4.82;;;3.28;;
54959;SDS011;40860;51.710;8.736;2022-10-15T21:23:35;3.88;;;3.03;;
54959;SDS011;40860;51.710;8.736;2022-10-15T21:27:39;4.22;;;2.92;;
54959;SDS011;40860;51.710;8.736;2022-10-15T21:31:42;3.97;;;3.10;;
54959;SDS011;40860;51.710;8.736;2022-10-15T21:35:46;3.90;;;2.80;;
54959;SDS011;40860;51.710;8.736;2022-10-15T21:39:49;3.63;;;3.00;;
54959;SDS011;40860;51.710;8.736;2022-10-15T21:43:52;3.38;;;2.92;;
54959;SDS011;40860;51.710;8.736;2022-10-15T21:47:55;4.95;;;3.25;;
54959;SDS011;40860;51.710;8.736;2022-10-15T21:51:59;3.67;;;3.38;;
54959;SDS011;40860;51.710;8.736;2022-10-15T21:56:02;3.70;;;3.40;;
54959;SDS011;40860;51.710;8.736;2022-10-15T22:00:11;4.40;;;4.00;;
54959;SDS011;40860;51.710;8.736;2022-10-15T22:04:16;3.70;;;3.45;;
54959;SDS011;40860;51.710;8.736;2022-10-15T22:08:20;3.60;;;3.17;;
54959;SDS011;40860;51.710;8.736;2022-10-15T22:12:23;3.33;;;3.03;;
54959;SDS011;40860;51.710;8.736;2022-10-15T22:16:27;4.68;;;3.05;;
54959;SDS011;40860;51.710;8.736;2022-10-15T22:20:30;3.63;;;3.30;;
54959;SDS011;40860;51.710;8.736;2022-10-15T22:24:35;4.25;;;3.17;;
54959;SDS011;40860;51.710;8.736;2022-10-15T22:28:38;4.25;;;3.63;;
54959;SDS011;40860;51.710;8.736;2022-10-15T22:32:41;3.95;;;3.55;;
54959;SDS011;40860;51.710;8.736;2022-10-15T22:36:44;3.28;;;2.75;;
54959;SDS011;40860;51.710;8.736;2022-10-15T22:40:52;4.18;;;3.03;;
54959;SDS011;40860;51.710;8.736;2022-10-15T22:44:55;4.90;;;2.85;;
54959;SDS011;40860;51.710;8.736;2022-10-15T22:48:58;3.38;;;3.08;;
54959;SDS011;40860;51.710;8.736;2022-10-15T22:53:01;3.63;;;2.92;;
54959;SDS011;40860;51.710;8.736;2022-10-15T22:57:05;3.03;;;2.70;;
54959;SDS011;40860;51.710;8.736;2022-10-15T23:01:09;6.88;;;2.97;;
54959;SDS011;40860;51.710;8.736;2022-10-15T23:05:13;3.22;;;2.33;;
54959;SDS011;40860;51.710;8.736;2022-10-15T23:09:16;4.07;;;3.13;;
54959;SDS011;40860;51.710;8.736;2022-10-15T23:13:21;3.05;;;2.67;;
54959;SDS011;40860;51.710;8.736;2022-10-15T23:17:24;5.15;;;2.92;;
54959;SDS011;40860;51.710;8.736;2022-10-15T23:21:28;3.70;;;2.70;;
54959;SDS011;40860;51.710;8.736;2022-10-15T23:25:35;3.55;;;2.75;;
54959;SDS011;40860;51.710;8.736;2022-10-15T23:29:40;3.53;;;2.42;;
54959;SDS011;40860;51.710;8.736;2022-10-15T23:33:43;3.17;;;2.38;;
54959;SDS011;40860;51.710;8.736;2022-10-15T23:37:45;4.00;;;2.60;;
54959;SDS011;40860;51.710;8.736;2022-10-15T23:41:48;3.45;;;2.83;;
54959;SDS011;40860;51.710;8.736;2022-10-15T23:45:52;5.82;;;2.88;;
54959;SDS011;40860;51.710;8.736;2022-10-15T23:49:55;5.85;;;2.80;;
54959;SDS011;40860;51.710;8.736;2022-10-15T23:53:59;6.50;;;3.20;;
54959;SDS011;40860;51.710;8.736;2022-10-15T23:58:03;4.28;;;2.65;;
